createdAt,value
2018-07-10T00:00:04.652Z,101650.98
2018-07-10T00:03:24.652Z,101650.22
2018-07-10T00:06:21.508Z,101656.30
2018-07-10T00:09:11.351Z,101653.36
2018-07-10T00:11:40.225Z,101648.17
2018-07-10T00:14:09.586Z,101651.44
2018-07-10T00:16:38.463Z,101645.75
2018-07-10T00:19:07.421Z,101649.30
2018-07-10T00:21:36.426Z,101646.20
2018-07-10T00:24:05.565Z,101645.34
2018-07-10T00:26:36.745Z,101639.06
2018-07-10T00:29:05.782Z,101641.08
2018-07-10T00:31:34.858Z,101634.85
2018-07-10T00:34:03.756Z,101649.53
2018-07-10T00:36:35.592Z,101643.40
2018-07-10T00:39:04.950Z,101630.73
2018-07-10T00:41:35.001Z,101631.45
2018-07-10T00:44:04.920Z,101625.67
2018-07-10T00:46:34.911Z,101621.02
2018-07-10T00:49:03.865Z,101611.24
2018-07-10T00:51:39.742Z,101606.16
2018-07-10T00:54:08.938Z,101604.09
2018-07-10T00:56:41.195Z,101602.31
2018-07-10T00:59:08.677Z,101601.81
2018-07-10T01:01:37.762Z,101605.66
2018-07-10T01:04:06.685Z,101604.09
2018-07-10T01:06:35.665Z,101597.56
2018-07-10T01:09:08.029Z,101596.05
2018-07-10T01:11:37.024Z,101601.67
2018-07-10T01:14:06.186Z,101595.33
2018-07-10T01:16:36.366Z,101592.36
2018-07-10T01:19:23.182Z,101581.45
2018-07-10T01:21:55.044Z,101580.03
2018-07-10T01:24:23.962Z,101584.44
2018-07-10T01:26:52.996Z,101587.47
2018-07-10T01:29:39.942Z,101592.23
2018-07-10T01:32:08.928Z,101585.91
2018-07-10T01:34:37.969Z,101584.61
2018-07-10T01:37:07.219Z,101574.88
2018-07-10T01:39:36.249Z,101578.93
2018-07-10T01:42:05.266Z,101577.34
2018-07-10T01:44:34.300Z,101567.88
2018-07-10T01:47:03.335Z,101575.09
2018-07-10T01:49:35.089Z,101568.11
2018-07-10T01:52:04.091Z,101567.60
2018-07-10T01:54:33.105Z,101562.79
2018-07-10T01:57:02.220Z,101565.30
2018-07-10T01:59:31.595Z,101569.20
2018-07-10T02:02:00.582Z,101566.98
2018-07-10T02:04:29.745Z,101568.47
2018-07-10T02:06:58.651Z,101571.36
2018-07-10T02:09:27.806Z,101561.28
2018-07-10T02:11:56.900Z,101560.45
2018-07-10T02:14:26.025Z,101552.73
2018-07-10T02:16:56.705Z,101546.84
2018-07-10T02:19:26.399Z,101548.05
2018-07-10T02:21:55.501Z,101543.11
2018-07-10T02:24:25.879Z,101538.16
2018-07-10T02:26:54.989Z,101538.86
2018-07-10T02:29:23.937Z,101536.67
2018-07-10T02:31:52.930Z,101537.02
2018-07-10T02:34:21.992Z,101537.81
2018-07-10T02:36:51.025Z,101531.08
2018-07-10T02:39:20.086Z,101526.61
2018-07-10T02:41:49.144Z,101524.69
2018-07-10T02:44:18.367Z,101531.61
2018-07-10T02:46:47.337Z,101529.16
2018-07-10T02:49:20.755Z,101525.36
2018-07-10T02:52:04.311Z,101520.70
2018-07-10T02:54:35.495Z,101516.00
2018-07-10T02:57:07.067Z,101515.73
2018-07-10T02:59:40.194Z,101506.76
2018-07-10T03:02:23.051Z,101506.59
2018-07-10T03:04:59.363Z,101514.84
2018-07-10T03:07:34.441Z,101511.64
2018-07-10T03:10:03.537Z,101511.29
2018-07-10T03:12:33.526Z,101505.34
2018-07-10T03:15:13.408Z,101503.90
2018-07-10T03:17:42.455Z,101516.30
2018-07-10T03:20:11.837Z,101509.00
2018-07-10T03:22:40.833Z,101514.17
2018-07-10T03:25:10.184Z,101514.38
2018-07-10T03:27:39.357Z,101508.37
2018-07-10T03:30:08.314Z,101504.13
2018-07-10T03:32:39.769Z,101509.56
2018-07-10T03:35:06.248Z,101498.20
2018-07-10T03:37:35.179Z,101506.31
2018-07-10T03:40:04.201Z,101503.95
2018-07-10T03:42:33.232Z,101507.09
2018-07-10T03:45:02.272Z,101503.22
2018-07-10T03:47:31.312Z,101502.71
2018-07-10T03:50:00.421Z,101502.49
2018-07-10T03:52:31.544Z,101509.00
2018-07-10T03:55:03.006Z,101508.36
2018-07-10T03:57:31.886Z,101509.77
2018-07-10T04:00:14.168Z,101510.28
2018-07-10T04:02:48.770Z,101511.34
2018-07-10T04:05:21.288Z,101508.27
2018-07-10T04:07:50.164Z,101507.25
2018-07-10T04:10:21.232Z,101497.47
2018-07-10T04:12:50.930Z,101500.71
2018-07-10T04:15:20.184Z,101501.22
2018-07-10T04:18:26.899Z,101504.26
2018-07-10T04:21:33.223Z,101501.00
2018-07-10T04:24:11.046Z,101505.27
2018-07-10T04:26:44.550Z,101503.55
2018-07-10T04:29:46.770Z,101504.81
2018-07-10T04:32:15.778Z,101504.26
2018-07-10T04:34:49.114Z,101508.61
2018-07-10T04:37:18.131Z,101507.75
2018-07-10T04:39:47.155Z,101498.69
2018-07-10T04:42:20.239Z,101505.89
2018-07-10T04:45:06.100Z,101502.64
2018-07-10T04:48:02.064Z,101495.16
2018-07-10T04:50:41.004Z,101494.66
2018-07-10T04:53:15.182Z,101498.65
2018-07-10T04:55:44.388Z,101487.41
2018-07-10T04:58:31.411Z,101488.31
2018-07-10T05:01:09.476Z,101481.33
2018-07-10T05:03:38.705Z,101477.22
2018-07-10T05:06:08.317Z,101476.91
2018-07-10T05:08:37.279Z,101470.59
2018-07-10T05:11:06.365Z,101462.13
2018-07-10T05:13:38.610Z,101446.52
2018-07-10T05:16:07.612Z,101459.05
2018-07-10T05:18:36.822Z,101458.27
2018-07-10T05:21:15.488Z,101452.62
2018-07-10T05:23:47.156Z,101452.79
2018-07-10T05:26:17.118Z,101458.10
2018-07-10T05:28:49.915Z,101453.52
2018-07-10T05:31:19.235Z,101443.63
2018-07-10T05:33:49.569Z,101451.16
2018-07-10T05:36:23.642Z,101446.41
2018-07-10T05:39:08.582Z,101443.16
2018-07-10T05:41:48.115Z,101436.61
2018-07-10T05:44:22.261Z,101439.12
2018-07-10T05:46:51.355Z,101441.68
2018-07-10T05:49:20.246Z,101428.15
2018-07-10T05:51:50.947Z,101437.91
2018-07-10T05:54:20.700Z,101431.06
2018-07-10T05:56:49.750Z,101434.14
2018-07-10T05:59:18.655Z,101436.37
2018-07-10T06:01:47.596Z,101436.55
2018-07-10T06:04:19.623Z,101435.83
2018-07-10T06:06:48.577Z,101437.03
2018-07-10T06:09:18.359Z,101428.67
2018-07-10T06:11:47.380Z,101430.17
2018-07-10T06:14:16.405Z,101431.00
2018-07-10T06:16:45.635Z,101432.94
2018-07-10T06:19:15.104Z,101430.20
2018-07-10T06:21:53.107Z,101433.30
2018-07-10T06:24:29.906Z,101425.73
2018-07-10T06:27:06.174Z,101421.62
2018-07-10T06:29:56.919Z,101418.55
2018-07-10T06:32:28.982Z,101420.63
2018-07-10T06:35:07.606Z,101413.27
2018-07-10T06:37:37.564Z,101416.20
2018-07-10T06:40:07.437Z,101413.97
2018-07-10T06:42:49.356Z,101416.72
2018-07-10T06:45:18.351Z,101412.25
2018-07-10T06:47:49.274Z,101412.46
2018-07-10T06:50:20.998Z,101417.08
2018-07-10T06:52:52.617Z,101406.98
2018-07-10T06:55:21.892Z,101404.58
2018-07-10T06:57:53.006Z,101403.37
2018-07-10T07:00:21.942Z,101399.95
2018-07-10T07:02:50.993Z,101404.22
2018-07-10T07:05:20.075Z,101400.11
2018-07-10T07:07:49.151Z,101397.54
2018-07-10T07:10:18.269Z,101392.41
2018-07-10T07:12:47.445Z,101402.00
2018-07-10T07:15:20.740Z,101401.16
2018-07-10T07:17:51.376Z,101384.72
2018-07-10T07:20:20.818Z,101386.44
2018-07-10T07:22:50.077Z,101385.77
2018-07-10T07:25:21.674Z,101387.62
2018-07-10T07:27:50.709Z,101382.37
2018-07-10T07:30:19.780Z,101387.66
2018-07-10T07:32:49.613Z,101385.27
2018-07-10T07:35:18.903Z,101392.31
2018-07-10T07:37:48.028Z,101392.63
2018-07-10T07:40:17.477Z,101372.10
2018-07-10T07:42:46.495Z,101366.63
2018-07-10T07:45:15.523Z,101371.39
2018-07-10T07:47:44.494Z,101368.31
2018-07-10T07:50:13.540Z,101376.88
2018-07-10T07:52:42.587Z,101366.78
2018-07-10T07:55:12.719Z,101362.33
2018-07-10T07:57:41.783Z,101363.17
2018-07-10T08:00:10.774Z,101357.01
2018-07-10T08:02:39.778Z,101353.24
2018-07-10T08:05:08.783Z,101369.85
2018-07-10T08:07:37.717Z,101372.10
2018-07-10T08:10:06.864Z,101375.34
2018-07-10T08:12:35.927Z,101356.30
2018-07-10T08:15:04.907Z,101370.52
2018-07-10T08:17:37.330Z,101365.03
2018-07-10T08:20:06.999Z,101376.50
2018-07-10T08:22:36.202Z,101372.56
2018-07-10T08:25:07.913Z,101364.05
2018-07-10T08:27:37.357Z,101368.16
2018-07-10T08:30:06.708Z,101360.80
2018-07-10T08:32:36.660Z,101349.64
2018-07-10T08:35:06.084Z,101344.31
2018-07-10T08:37:35.027Z,101339.88
2018-07-10T08:40:04.146Z,101335.09
2018-07-10T08:42:33.113Z,101337.29
2018-07-10T08:45:02.458Z,101335.75
2018-07-10T08:47:31.425Z,101332.34
2018-07-10T08:50:00.470Z,101324.98
2018-07-10T08:52:29.415Z,101324.12
2018-07-10T08:54:58.418Z,101326.90
2018-07-10T08:57:27.778Z,101322.25
2018-07-10T08:59:56.725Z,101321.74
2018-07-10T09:02:25.634Z,101316.26
2018-07-10T09:04:58.629Z,101311.10
2018-07-10T09:07:27.643Z,101310.23
2018-07-10T09:09:56.509Z,101313.84
2018-07-10T09:12:25.498Z,101302.75
2018-07-10T09:14:54.439Z,101299.30
2018-07-10T09:17:23.408Z,101297.59
2018-07-10T09:19:52.348Z,101299.13
2018-07-10T09:22:22.314Z,101284.42
2018-07-10T09:24:56.356Z,101292.45
2018-07-10T09:27:25.303Z,101284.08
2018-07-10T09:29:54.447Z,101277.03
2018-07-10T09:32:40.954Z,101277.72
2018-07-10T09:35:09.922Z,101272.92
2018-07-10T09:37:45.994Z,101276.50
2018-07-10T09:40:19.315Z,101277.69
2018-07-10T09:42:55.970Z,101276.51
2018-07-10T09:45:34.802Z,101267.42
2018-07-10T09:48:04.757Z,101274.73
2018-07-10T09:50:33.768Z,101268.02
2018-07-10T09:53:03.464Z,101274.05
2018-07-10T09:55:32.585Z,101262.38
2018-07-10T09:58:02.330Z,101272.38
2018-07-10T10:00:49.969Z,101268.26
2018-07-10T10:03:18.842Z,101267.80
2018-07-10T10:05:47.770Z,101267.63
2018-07-10T10:08:16.721Z,101278.89
2018-07-10T10:10:45.669Z,101270.52
2018-07-10T10:13:14.607Z,101273.77
2018-07-10T10:15:43.671Z,101268.47
2018-07-10T10:18:12.747Z,101265.08
2018-07-10T10:20:43.644Z,101257.20
2018-07-10T10:23:14.634Z,101247.80
2018-07-10T10:25:49.813Z,101252.58
2018-07-10T10:28:17.324Z,101258.91
2018-07-10T10:30:46.296Z,101248.13
2018-07-10T10:33:15.302Z,101246.74
2018-07-10T10:35:44.358Z,101239.91
2018-07-10T10:38:13.270Z,101234.38
2018-07-10T10:40:42.241Z,101234.47
2018-07-10T10:43:12.885Z,101233.13
2018-07-10T10:45:45.516Z,101222.87
2018-07-10T10:48:14.951Z,101226.80
2018-07-10T10:50:48.591Z,101224.34
2018-07-10T10:53:18.410Z,101215.30
2018-07-10T10:55:47.316Z,101208.77
2018-07-10T10:58:16.378Z,101207.05
2018-07-10T11:00:45.480Z,101202.18
2018-07-10T11:03:14.516Z,101199.86
2018-07-10T11:05:44.914Z,101190.72
2018-07-10T11:08:14.446Z,101192.45
2018-07-10T11:10:45.013Z,101187.66
2018-07-10T11:13:15.559Z,101191.34
2018-07-10T11:15:46.010Z,101188.39
2018-07-10T11:19:07.341Z,101188.27
2018-07-10T11:21:57.470Z,101180.15
2018-07-10T11:24:26.809Z,101173.77
2018-07-10T11:26:55.753Z,101179.89
2018-07-10T11:29:24.738Z,101178.05
2018-07-10T11:31:53.729Z,101166.25
2018-07-10T11:34:22.874Z,101155.81
2018-07-10T11:36:51.912Z,101149.86
2018-07-10T11:39:21.013Z,101155.57
2018-07-10T11:41:51.293Z,101154.88
2018-07-10T11:44:20.317Z,101157.05
2018-07-10T11:46:49.671Z,101154.12
2018-07-10T11:49:18.681Z,101152.12
2018-07-10T11:51:47.786Z,101134.97
2018-07-10T11:54:17.251Z,101155.50
2018-07-10T11:56:46.205Z,101155.48
2018-07-10T11:59:15.184Z,101154.70
2018-07-10T12:01:44.159Z,101152.46
2018-07-10T12:04:13.145Z,101149.12
2018-07-10T12:06:53.305Z,101159.23
2018-07-10T12:09:22.268Z,101152.16
2018-07-10T12:11:51.430Z,101147.92
2018-07-10T12:14:20.469Z,101163.88
2018-07-10T12:16:49.392Z,101159.41
2018-07-10T12:19:18.365Z,101153.95
2018-07-10T12:21:47.328Z,101146.22
2018-07-10T12:24:16.319Z,101154.98
2018-07-10T12:26:45.340Z,101152.99
2018-07-10T12:29:14.549Z,101152.17
2018-07-10T12:31:43.782Z,101154.66
2018-07-10T12:34:12.757Z,101148.95
2018-07-10T12:36:41.711Z,101153.55
2018-07-10T12:39:13.154Z,101160.14
2018-07-10T12:41:42.269Z,101152.22
2018-07-10T12:44:11.161Z,101152.88
2018-07-10T12:46:40.266Z,101131.85
2018-07-10T12:49:09.299Z,101127.59
2018-07-10T12:51:38.260Z,101127.16
2018-07-10T12:54:07.294Z,101121.00
2018-07-10T12:56:36.186Z,101111.61
2018-07-10T12:59:05.147Z,101122.70
2018-07-10T13:01:34.174Z,101126.44
2018-07-10T13:04:06.272Z,101120.73
2018-07-10T13:06:35.192Z,101112.68
2018-07-10T13:09:04.317Z,101111.65
2018-07-10T13:11:33.286Z,101113.01
2018-07-10T13:14:02.288Z,101097.92
2018-07-10T13:16:31.288Z,101103.75
2018-07-10T13:19:02.916Z,101096.79
2018-07-10T13:21:31.795Z,101097.92
2018-07-10T13:24:00.826Z,101096.72
2018-07-10T13:26:29.719Z,101086.47
2018-07-10T13:28:58.773Z,101090.72
2018-07-10T13:31:27.815Z,101084.49
2018-07-10T13:33:56.722Z,101085.13
2018-07-10T13:36:25.865Z,101084.58
2018-07-10T13:38:54.774Z,101087.67
2018-07-10T13:41:24.143Z,101096.25
2018-07-10T13:43:56.461Z,101092.35
2018-07-10T13:46:25.316Z,101085.23
2018-07-10T13:48:54.334Z,101088.77
2018-07-10T13:51:23.342Z,101091.97
2018-07-10T13:53:52.342Z,101089.52
2018-07-10T13:56:21.368Z,101077.03
2018-07-10T13:58:50.308Z,101077.85
2018-07-10T14:01:20.234Z,101075.80
2018-07-10T14:03:49.215Z,101083.91
2018-07-10T14:06:18.228Z,101068.38
2018-07-10T14:08:47.281Z,101066.59
2018-07-10T14:11:16.215Z,101079.78
2018-07-10T14:13:45.181Z,101066.38
2018-07-10T14:16:14.083Z,101086.41
2018-07-10T14:18:43.208Z,101086.21
2018-07-10T14:21:13.653Z,101082.70
2018-07-10T14:23:42.680Z,101083.42
2018-07-10T14:26:11.634Z,101083.98
2018-07-10T14:28:40.574Z,101073.91
2018-07-10T14:31:09.497Z,101077.35
2018-07-10T14:33:38.501Z,101094.63
2018-07-10T14:36:07.467Z,101093.59
2018-07-10T14:38:42.215Z,101078.56
2018-07-10T14:41:11.595Z,101085.87
2018-07-10T14:43:47.949Z,101092.31
2018-07-10T14:46:21.785Z,101085.62
2018-07-10T14:49:03.807Z,101086.19
2018-07-10T14:51:38.785Z,101083.03
2018-07-10T14:54:07.797Z,101072.67
2018-07-10T14:56:36.839Z,101078.00
2018-07-10T14:59:06.269Z,101074.06
2018-07-10T15:01:35.140Z,101073.76
2018-07-10T15:04:04.204Z,101071.56
2018-07-10T15:06:33.082Z,101073.99
2018-07-10T15:09:02.166Z,101082.77
2018-07-10T15:11:31.144Z,101095.31
2018-07-10T15:14:09.808Z,101082.78
2018-07-10T15:16:56.156Z,101077.63
2018-07-10T15:19:27.823Z,101077.37
2018-07-10T15:21:56.628Z,101076.34
2018-07-10T15:24:25.618Z,101073.09
2018-07-10T15:26:54.565Z,101086.36
2018-07-10T15:29:30.182Z,101089.84
2018-07-10T15:32:00.256Z,101093.67
2018-07-10T15:34:29.288Z,101081.72
2018-07-10T15:36:58.290Z,101083.95
2018-07-10T15:39:27.224Z,101091.68
2018-07-10T15:41:56.255Z,101090.09
2018-07-10T15:44:27.876Z,101091.44
2018-07-10T15:46:57.465Z,101091.76
2018-07-10T15:49:30.172Z,101090.48
2018-07-10T15:52:00.238Z,101104.15
2018-07-10T15:54:30.603Z,101099.48
2018-07-10T15:56:59.636Z,101107.04
2018-07-10T15:59:32.376Z,101110.95
2018-07-10T16:02:01.835Z,101112.00
2018-07-10T16:04:30.864Z,101119.36
2018-07-10T16:06:59.963Z,101124.56
2018-07-10T16:09:29.643Z,101127.02
2018-07-10T16:12:02.472Z,101127.27
2018-07-10T16:14:31.492Z,101123.97
2018-07-10T16:17:02.346Z,101127.25
2018-07-10T16:19:47.018Z,101128.55
2018-07-10T16:22:24.785Z,101130.77
2018-07-10T16:25:19.600Z,101123.94
2018-07-10T16:27:48.700Z,101137.12
2018-07-10T16:30:25.958Z,101137.88
2018-07-10T16:32:54.817Z,101139.70
2018-07-10T16:35:28.528Z,101146.48
2018-07-10T16:37:58.796Z,101147.02
2018-07-10T16:40:27.641Z,101145.20
2018-07-10T16:42:57.261Z,101145.17
2018-07-10T16:45:33.791Z,101144.97
2018-07-10T16:48:32.165Z,101144.13
2018-07-10T16:51:10.707Z,101151.80
2018-07-10T16:53:39.703Z,101147.64
2018-07-10T16:56:08.715Z,101142.55
2018-07-10T16:58:41.729Z,101146.06
2018-07-10T17:01:10.787Z,101142.05
2018-07-10T17:03:42.473Z,101151.28
2018-07-10T17:06:13.442Z,101147.67
2018-07-10T17:08:42.474Z,101142.56
2018-07-10T17:11:11.469Z,101150.63
2018-07-10T17:13:40.507Z,101150.09
2018-07-10T17:16:09.619Z,101152.25
2018-07-10T17:18:38.592Z,101152.56
2018-07-10T17:21:07.867Z,101149.03
2018-07-10T17:23:36.975Z,101159.45
2018-07-10T17:26:06.208Z,101157.34
2018-07-10T17:28:35.161Z,101161.78
2018-07-10T17:31:04.089Z,101158.38
2018-07-10T17:33:33.003Z,101159.28
2018-07-10T17:36:01.982Z,101156.28
2018-07-10T17:38:30.961Z,101167.41
2018-07-10T17:41:00.054Z,101162.28
2018-07-10T17:43:29.006Z,101163.33
2018-07-10T17:45:58.045Z,101171.78
2018-07-10T17:48:27.008Z,101170.89
2018-07-10T17:50:55.983Z,101176.41
2018-07-10T17:53:24.966Z,101174.41
2018-07-10T17:55:59.110Z,101177.47
2018-07-10T17:58:28.579Z,101178.48
2018-07-10T18:00:57.596Z,101177.88
2018-07-10T18:03:26.533Z,101184.98
2018-07-10T18:05:55.480Z,101180.13
2018-07-10T18:08:24.525Z,101183.59
2018-07-10T18:10:53.527Z,101187.66
2018-07-10T18:13:25.577Z,101195.65
2018-07-10T18:15:54.661Z,101199.91
2018-07-10T18:18:23.917Z,101205.51
2018-07-10T18:20:52.814Z,101208.22
2018-07-10T18:23:23.519Z,101209.80
2018-07-10T18:25:52.322Z,101206.84
2018-07-10T18:28:21.295Z,101205.75
2018-07-10T18:30:50.281Z,101205.94
2018-07-10T18:33:19.282Z,101213.34
2018-07-10T18:35:48.423Z,101214.80
2018-07-10T18:38:17.585Z,101220.55
2018-07-10T18:40:46.523Z,101224.73
2018-07-10T18:43:15.578Z,101223.17
2018-07-10T18:45:44.574Z,101226.44
2018-07-10T18:48:13.631Z,101227.57
2018-07-10T18:50:44.630Z,101233.13
2018-07-10T18:53:13.602Z,101236.59
2018-07-10T18:58:37.572Z,101239.56
2018-07-10T19:01:27.395Z,101247.34
2018-07-10T19:03:58.443Z,101252.22
2018-07-10T19:06:27.408Z,101254.72
2018-07-10T19:08:56.547Z,101262.68
2018-07-10T19:11:26.850Z,101264.31
2018-07-10T19:14:00.056Z,101258.03
2018-07-10T19:16:30.402Z,101264.95
2018-07-10T19:19:04.615Z,101263.98
2018-07-10T19:21:40.204Z,101266.63
2018-07-10T19:24:18.274Z,101261.20
2018-07-10T19:26:47.982Z,101268.95
2018-07-10T19:29:28.902Z,101260.74
2018-07-10T19:31:57.884Z,101261.17
2018-07-10T19:34:26.979Z,101268.16
2018-07-10T19:36:55.902Z,101280.95
2018-07-10T19:39:24.791Z,101279.34
2018-07-10T19:41:53.793Z,101275.75
2018-07-10T19:44:24.364Z,101286.27
2018-07-10T19:46:53.527Z,101287.20
2018-07-10T19:49:23.703Z,101293.48
2018-07-10T19:51:52.905Z,101307.94
2018-07-10T19:54:22.297Z,101301.14
2018-07-10T19:56:51.384Z,101298.08
2018-07-10T19:59:20.390Z,101307.06
2018-07-10T20:01:55.297Z,101302.95
2018-07-10T20:04:41.777Z,101308.68
2018-07-10T20:07:23.957Z,101310.94
2018-07-10T20:10:10.538Z,101309.62
2018-07-10T20:13:18.316Z,101318.09
2018-07-10T20:16:10.120Z,101323.29
2018-07-10T20:19:17.815Z,101332.56
2018-07-10T20:22:14.307Z,101334.16
2018-07-10T20:25:28.740Z,101335.91
2018-07-10T20:28:05.650Z,101337.81
2018-07-10T20:31:14.185Z,101335.63
2018-07-10T20:34:26.225Z,101332.58
2018-07-10T20:36:55.573Z,101334.33
2018-07-10T20:39:37.850Z,101342.72
2018-07-10T20:42:06.824Z,101344.95
2018-07-10T20:44:53.520Z,101343.41
2018-07-10T20:47:22.621Z,101343.43
2018-07-10T20:50:19.899Z,101342.91
2018-07-10T20:52:53.673Z,101352.02
2018-07-10T20:55:25.094Z,101341.23
2018-07-10T20:57:59.365Z,101353.91
2018-07-10T21:00:40.619Z,101356.83
2018-07-10T21:03:49.555Z,101349.96
2018-07-10T21:06:21.643Z,101354.75
2018-07-10T21:09:09.732Z,101360.75
2018-07-10T21:12:01.069Z,101352.55
2018-07-10T21:15:10.252Z,101358.39
2018-07-10T21:18:14.677Z,101363.52
2018-07-10T21:20:57.576Z,101362.66
2018-07-10T21:24:00.459Z,101357.17
2018-07-10T21:27:06.665Z,101355.99
2018-07-10T21:29:47.445Z,101361.64
2018-07-10T21:32:44.471Z,101359.23
2018-07-10T21:35:15.790Z,101357.86
2018-07-10T21:37:56.946Z,101371.75
2018-07-10T21:40:41.668Z,101366.62
2018-07-10T21:43:24.278Z,101369.86
2018-07-10T21:46:00.517Z,101370.05
2018-07-10T21:48:41.292Z,101364.17
2018-07-10T21:51:10.169Z,101376.87
2018-07-10T21:53:39.296Z,101375.48
2018-07-10T21:56:08.294Z,101371.72
2018-07-10T21:58:38.553Z,101369.31
2018-07-10T22:01:35.212Z,101370.50
2018-07-10T22:04:04.325Z,101375.13
2018-07-10T22:06:33.885Z,101374.30
2018-07-10T22:09:02.887Z,101366.57
2018-07-10T22:11:31.794Z,101369.98
2018-07-10T22:14:00.823Z,101367.77
2018-07-10T22:16:29.900Z,101372.05
2018-07-10T22:18:59.050Z,101373.58
2018-07-10T22:21:28.253Z,101379.73
2018-07-10T22:23:57.448Z,101374.09
2018-07-10T22:26:26.738Z,101372.34
2018-07-10T22:28:56.334Z,101374.23
2018-07-10T22:31:43.098Z,101364.84
2018-07-10T22:34:12.188Z,101377.31
2018-07-10T22:36:41.065Z,101374.22
2018-07-10T22:39:10.080Z,101377.98
2018-07-10T22:41:42.123Z,101373.69
2018-07-10T22:44:11.126Z,101376.22
2018-07-10T22:46:40.075Z,101377.30
2018-07-10T22:49:10.222Z,101372.81
2018-07-10T22:51:39.153Z,101367.69
2018-07-10T22:54:10.746Z,101371.77
2018-07-10T22:56:39.745Z,101367.64
2018-07-10T22:59:08.650Z,101367.11
2018-07-10T23:01:38.026Z,101370.59
2018-07-10T23:04:07.946Z,101366.59
2018-07-10T23:06:40.461Z,101365.58
2018-07-10T23:09:09.380Z,101369.50
2018-07-10T23:11:39.178Z,101366.58
2018-07-10T23:14:08.124Z,101368.27
2018-07-10T23:16:37.940Z,101374.44
2018-07-10T23:19:07.503Z,101368.45
2018-07-10T23:21:37.719Z,101369.28
2018-07-10T23:24:07.445Z,101365.47
2018-07-10T23:26:36.573Z,101371.95
2018-07-10T23:29:05.700Z,101373.33
2018-07-10T23:31:34.615Z,101379.94
2018-07-10T23:34:22.954Z,101375.64
2018-07-10T23:36:59.548Z,101379.70
2018-07-10T23:39:47.607Z,101378.46
2018-07-10T23:42:40.957Z,101378.30
2018-07-10T23:45:16.720Z,101381.16
2018-07-10T23:47:47.451Z,101379.03
2018-07-10T23:50:24.387Z,101374.17
2018-07-10T23:53:30.154Z,101375.75
2018-07-10T23:55:59.062Z,101376.50
2018-07-10T23:58:28.117Z,101375.39
